createdAt,value
2023-04-19T00:00:09.256Z,10.80
2023-04-19T00:03:14.488Z,10.85
2023-04-19T00:06:17.522Z,10.93
2023-04-19T00:09:20.140Z,10.90
2023-04-19T00:12:22.690Z,10.86
2023-04-19T00:15:25.535Z,10.81
2023-04-19T00:18:29.504Z,10.81
2023-04-19T00:21:32.332Z,10.83
2023-04-19T00:24:35.350Z,10.87
2023-04-19T00:27:37.951Z,10.83
2023-04-19T00:30:40.536Z,10.84
2023-04-19T00:33:44.477Z,10.87
2023-04-19T00:36:47.094Z,10.93
2023-04-19T00:39:49.734Z,10.91
2023-04-19T00:42:52.391Z,10.91
2023-04-19T00:45:55.280Z,10.94
2023-04-19T00:48:59.392Z,10.96
2023-04-19T00:52:02.037Z,10.96
2023-04-19T00:55:06.218Z,10.98
2023-04-19T00:58:09.718Z,10.98
2023-04-19T01:01:12.474Z,11.00
2023-04-19T01:04:17.481Z,11.05
2023-04-19T01:07:20.705Z,11.03
2023-04-19T01:10:23.425Z,11.02
2023-04-19T01:13:27.845Z,11.06
2023-04-19T01:16:30.551Z,11.04
2023-04-19T01:19:36.333Z,11.03
2023-04-19T01:22:40.343Z,11.03
2023-04-19T01:25:43.037Z,11.00
2023-04-19T01:28:45.757Z,11.04
2023-04-19T01:31:51.534Z,11.02
2023-04-19T01:34:54.246Z,11.01
2023-04-19T01:37:58.246Z,11.01
2023-04-19T01:41:00.812Z,11.00
2023-04-19T01:44:03.399Z,11.01
2023-04-19T01:47:06.357Z,10.97
2023-04-19T01:50:09.993Z,10.98
2023-04-19T01:53:14.093Z,11.00
2023-04-19T01:56:16.642Z,10.96
2023-04-19T01:59:19.341Z,10.92
2023-04-19T02:02:22.144Z,10.92
2023-04-19T02:05:24.942Z,10.89
2023-04-19T02:08:29.159Z,10.88
2023-04-19T02:11:31.884Z,10.86
2023-04-19T02:14:34.538Z,10.89
2023-04-19T02:17:37.169Z,10.92
2023-04-19T02:20:39.902Z,10.91
2023-04-19T02:23:43.901Z,10.90
2023-04-19T02:26:46.537Z,10.88
2023-04-19T02:29:49.131Z,10.88
2023-04-19T02:32:51.795Z,10.85
2023-04-19T02:35:54.434Z,10.83
2023-04-19T02:38:59.268Z,10.81
2023-04-19T02:42:02.261Z,10.76
2023-04-19T02:45:05.716Z,10.74
2023-04-19T02:48:08.367Z,10.73
2023-04-19T02:51:16.420Z,10.69
2023-04-19T02:54:20.451Z,10.68
2023-04-19T02:57:23.339Z,10.72
2023-04-19T03:00:25.954Z,10.68
2023-04-19T03:03:28.663Z,10.70
2023-04-19T03:06:31.970Z,10.73
2023-04-19T03:09:35.967Z,10.75
2023-04-19T03:12:38.556Z,10.74
2023-04-19T03:15:41.166Z,10.74
2023-04-19T03:18:43.824Z,10.77
2023-04-19T03:21:46.906Z,10.75
2023-04-19T03:24:50.944Z,10.79
2023-04-19T03:27:53.529Z,10.73
2023-04-19T03:30:56.161Z,10.70
2023-04-19T03:33:58.833Z,10.71
2023-04-19T03:37:01.507Z,10.67
2023-04-19T03:40:06.024Z,10.66
2023-04-19T03:43:08.602Z,10.62
2023-04-19T03:46:11.297Z,10.59
2023-04-19T03:49:13.914Z,10.64
2023-04-19T03:52:16.564Z,10.66
2023-04-19T03:55:20.797Z,10.60
2023-04-19T03:58:23.804Z,10.55
2023-04-19T04:01:27.176Z,10.53
2023-04-19T04:04:29.973Z,10.49
2023-04-19T04:07:32.715Z,10.45
2023-04-19T04:10:36.674Z,10.43
2023-04-19T04:13:39.278Z,10.41
2023-04-19T04:16:42.340Z,10.31
2023-04-19T04:19:45.123Z,10.30
2023-04-19T04:22:47.725Z,10.29
2023-04-19T04:26:00.628Z,10.30
2023-04-19T04:29:03.669Z,10.29
2023-04-19T04:32:10.525Z,10.30
2023-04-19T04:35:13.383Z,10.28
2023-04-19T04:38:24.178Z,10.28
2023-04-19T04:41:31.593Z,10.22
2023-04-19T04:44:34.828Z,10.17
2023-04-19T04:47:37.655Z,10.19
2023-04-19T04:50:40.568Z,10.19
2023-04-19T04:53:43.263Z,10.16
2023-04-19T04:56:47.259Z,10.14
2023-04-19T04:59:49.918Z,10.19
2023-04-19T05:02:53.116Z,10.21
2023-04-19T05:05:56.313Z,10.21
2023-04-19T05:08:58.966Z,10.26
2023-04-19T05:12:02.919Z,10.30
2023-04-19T05:15:06.413Z,10.26
2023-04-19T05:18:09.050Z,10.25
2023-04-19T05:21:11.667Z,10.30
2023-04-19T05:24:14.596Z,10.35
2023-04-19T05:27:18.898Z,10.38
2023-04-19T05:30:21.677Z,10.38
2023-04-19T05:33:24.339Z,10.35
2023-04-19T05:36:28.153Z,10.37
2023-04-19T05:39:30.763Z,10.45
2023-04-19T05:42:34.937Z,10.44
2023-04-19T05:45:37.577Z,10.42
2023-04-19T05:48:40.140Z,10.47
2023-04-19T05:51:42.738Z,10.51
2023-04-19T05:54:45.349Z,10.51
2023-04-19T05:57:49.333Z,10.57
2023-04-19T06:00:52.580Z,10.57
2023-04-19T06:03:55.850Z,10.56
2023-04-19T06:06:58.748Z,10.54
2023-04-19T06:10:01.665Z,10.58
2023-04-19T06:13:06.073Z,10.64
2023-04-19T06:16:09.620Z,10.62
2023-04-19T06:19:12.221Z,10.67
2023-04-19T06:22:15.155Z,10.70
2023-04-19T06:25:17.809Z,10.77
2023-04-19T06:28:21.922Z,10.70
2023-04-19T06:31:24.859Z,10.74
2023-04-19T06:34:27.517Z,10.83
2023-04-19T06:37:30.168Z,10.93
2023-04-19T06:40:32.885Z,10.93
2023-04-19T06:43:36.909Z,11.01
2023-04-19T06:46:39.902Z,11.08
2023-04-19T06:49:42.498Z,11.13
2023-04-19T06:52:45.151Z,11.27
2023-04-19T06:55:48.057Z,11.25
2023-04-19T06:58:52.152Z,11.37
2023-04-19T07:01:56.848Z,11.47
2023-04-19T07:04:59.754Z,11.49
2023-04-19T07:08:02.479Z,11.53
2023-04-19T07:11:06.714Z,11.61
2023-04-19T07:14:11.666Z,11.75
2023-04-19T07:17:14.824Z,11.85
2023-04-19T07:20:17.463Z,11.97
2023-04-19T07:23:20.203Z,12.03
2023-04-19T07:26:22.895Z,12.14
2023-04-19T07:29:26.976Z,12.21
2023-04-19T07:32:29.629Z,12.30
2023-04-19T07:35:32.334Z,12.37
2023-04-19T07:38:34.947Z,12.51
2023-04-19T07:41:37.537Z,12.63
2023-04-19T07:44:41.458Z,12.63
2023-04-19T07:47:44.069Z,12.56
2023-04-19T07:50:46.778Z,12.61
2023-04-19T07:53:49.356Z,12.72
2023-04-19T07:56:51.960Z,12.88
2023-04-19T07:59:59.147Z,13.04
2023-04-19T08:03:01.900Z,13.20
2023-04-19T08:06:07.165Z,13.18
2023-04-19T08:09:09.945Z,13.27
2023-04-19T08:12:17.168Z,13.21
2023-04-19T08:16:03.442Z,13.25
2023-04-19T08:18:53.072Z,13.35
2023-04-19T08:21:55.713Z,13.28
2023-04-19T08:24:58.344Z,13.18
2023-04-19T08:28:01.000Z,13.17
2023-04-19T08:31:08.230Z,13.22
2023-04-19T08:34:11.084Z,13.01
2023-04-19T08:37:13.690Z,13.01
2023-04-19T08:40:16.960Z,13.00
2023-04-19T08:43:20.708Z,12.85
2023-04-19T08:46:24.990Z,12.68
2023-04-19T08:49:28.810Z,12.65
2023-04-19T08:52:37.229Z,12.60
2023-04-19T08:55:54.874Z,12.48
2023-04-19T08:59:17.993Z,12.48
2023-04-19T09:02:22.782Z,12.57
2023-04-19T09:05:25.795Z,12.60
2023-04-19T09:08:30.339Z,12.51
2023-04-19T09:11:38.738Z,12.52
2023-04-19T09:14:59.847Z,12.57
2023-04-19T09:18:07.228Z,12.61
2023-04-19T09:21:09.888Z,12.70
2023-04-19T09:24:12.685Z,12.82
2023-04-19T09:27:20.100Z,12.89
2023-04-19T09:30:31.423Z,12.95
2023-04-19T09:33:39.859Z,13.05
2023-04-19T09:36:43.271Z,13.14
2023-04-19T09:39:45.965Z,13.20
2023-04-19T09:45:54.121Z,13.51
2023-04-19T09:49:25.062Z,13.62
2023-04-19T09:52:39.941Z,13.64
2023-04-19T09:55:57.083Z,13.68
2023-04-19T09:59:20.211Z,13.67
2023-04-19T10:02:25.497Z,13.69
2023-04-19T10:05:30.280Z,13.67
2023-04-19T10:08:33.685Z,13.67
2023-04-19T10:11:38.919Z,13.64
2023-04-19T10:14:41.917Z,13.65
2023-04-19T10:17:44.915Z,13.63
2023-04-19T10:20:56.401Z,13.58
2023-04-19T10:24:00.408Z,13.51
2023-04-19T10:27:12.242Z,13.47
2023-04-19T10:30:20.683Z,13.36
2023-04-19T10:33:28.175Z,13.05
2023-04-19T10:36:33.780Z,12.95
2023-04-19T10:39:44.155Z,12.93
2023-04-19T10:43:18.153Z,12.95
2023-04-19T10:46:39.830Z,13.07
2023-04-19T10:49:46.846Z,13.00
2023-04-19T10:52:50.875Z,12.84
2023-04-19T10:55:53.530Z,12.86
2023-04-19T10:59:21.887Z,12.97
2023-04-19T11:02:29.156Z,13.08
2023-04-19T11:05:52.029Z,13.21
2023-04-19T11:08:56.179Z,13.26
2023-04-19T11:12:00.789Z,13.19
2023-04-19T11:15:03.405Z,13.16
2023-04-19T11:18:12.417Z,13.10
2023-04-19T11:21:18.784Z,13.00
2023-04-19T11:24:25.177Z,12.86
2023-04-19T11:27:28.783Z,12.78
2023-04-19T11:30:33.630Z,12.71
2023-04-19T11:33:37.034Z,12.65
2023-04-19T11:36:49.014Z,12.68
2023-04-19T11:39:53.230Z,12.69
2023-04-19T11:42:57.837Z,12.65
2023-04-19T11:46:07.041Z,12.63
2023-04-19T11:49:09.975Z,12.55
2023-04-19T11:52:13.097Z,12.48
2023-04-19T11:55:21.360Z,12.40
2023-04-19T11:58:29.907Z,12.27
2023-04-19T12:01:32.844Z,12.18
2023-04-19T12:04:36.177Z,12.15
2023-04-19T12:07:39.372Z,12.07
2023-04-19T12:10:57.097Z,12.01
2023-04-19T12:14:09.838Z,12.06
2023-04-19T12:17:14.014Z,11.94
2023-04-19T12:20:30.211Z,11.90
2023-04-19T12:23:33.161Z,11.88
2023-04-19T12:26:37.827Z,11.83
2023-04-19T12:29:40.755Z,11.72
2023-04-19T12:32:43.715Z,11.73
2023-04-19T12:35:46.529Z,11.71
2023-04-19T12:38:49.194Z,11.62
2023-04-19T12:41:53.376Z,11.53
2023-04-19T12:44:56.106Z,11.54
2023-04-19T12:47:58.914Z,11.53
2023-04-19T12:51:01.813Z,11.50
2023-04-19T12:54:07.428Z,11.54
2023-04-19T12:57:11.524Z,11.59
2023-04-19T13:00:14.950Z,11.57
2023-04-19T13:03:17.783Z,11.59
2023-04-19T13:06:20.883Z,11.57
2023-04-19T13:09:23.664Z,11.57
2023-04-19T13:12:28.026Z,11.65
2023-04-19T13:15:30.882Z,11.62
2023-04-19T13:18:33.695Z,11.62
2023-04-19T13:21:36.973Z,11.61
2023-04-19T13:24:39.853Z,11.62
2023-04-19T13:27:43.964Z,11.50
2023-04-19T13:30:46.625Z,11.47
2023-04-19T13:33:49.367Z,11.44
2023-04-19T13:36:52.143Z,11.51
2023-04-19T13:40:03.895Z,11.50
2023-04-19T13:43:15.139Z,11.48
2023-04-19T13:46:18.053Z,11.54
2023-04-19T13:49:20.802Z,11.57
2023-04-19T13:52:23.687Z,11.62
2023-04-19T13:55:28.112Z,11.58
2023-04-19T13:58:32.174Z,11.57
2023-04-19T14:01:35.000Z,11.60
2023-04-19T14:04:37.793Z,11.73
2023-04-19T14:07:41.520Z,11.87
2023-04-19T14:10:44.180Z,11.98
2023-04-19T14:13:49.324Z,12.05
2023-04-19T14:16:52.224Z,12.20
2023-04-19T14:19:55.183Z,12.34
2023-04-19T14:22:59.108Z,12.48
2023-04-19T14:26:01.889Z,12.53
2023-04-19T14:29:06.672Z,12.53
2023-04-19T14:32:24.065Z,12.49
2023-04-19T14:35:27.529Z,12.43
2023-04-19T14:38:30.308Z,12.47
2023-04-19T14:41:33.121Z,12.50
2023-04-19T14:44:37.615Z,12.57
2023-04-19T14:47:40.482Z,12.58
2023-04-19T14:50:43.260Z,12.63
2023-04-19T14:53:46.260Z,12.76
2023-04-19T14:56:49.015Z,12.72
2023-04-19T14:59:57.875Z,12.64
2023-04-19T15:03:01.294Z,12.55
2023-04-19T15:06:05.090Z,12.51
2023-04-19T15:09:07.964Z,12.35
2023-04-19T15:12:10.781Z,12.28
2023-04-19T15:15:14.885Z,12.23
2023-04-19T15:18:17.688Z,12.25
2023-04-19T15:21:23.014Z,12.16
2023-04-19T15:24:27.339Z,12.17
2023-04-19T15:27:30.221Z,12.20
2023-04-19T15:30:34.392Z,12.25
2023-04-19T15:33:38.003Z,12.22
2023-04-19T15:36:41.321Z,12.22
2023-04-19T15:39:44.542Z,12.32
2023-04-19T15:42:47.320Z,12.49
2023-04-19T15:45:52.085Z,12.69
2023-04-19T15:48:54.747Z,12.71
2023-04-19T15:51:57.464Z,12.74
2023-04-19T15:55:00.253Z,12.75
2023-04-19T15:58:04.544Z,12.81
2023-04-19T16:01:12.575Z,12.86
2023-04-19T16:04:15.515Z,12.93
2023-04-19T16:07:18.297Z,12.93
2023-04-19T16:10:21.271Z,12.94
2023-04-19T16:13:24.171Z,12.96
2023-04-19T16:16:31.313Z,13.03
2023-04-19T16:19:34.167Z,13.21
2023-04-19T16:22:36.927Z,13.40
2023-04-19T16:25:41.380Z,13.59
2023-04-19T16:28:44.061Z,13.60
2023-04-19T16:31:50.499Z,13.58
2023-04-19T16:34:54.939Z,13.48
2023-04-19T16:37:58.018Z,13.41
2023-04-19T16:41:02.202Z,13.31
2023-04-19T16:44:05.696Z,13.38
2023-04-19T16:47:09.941Z,13.41
2023-04-19T16:50:13.177Z,13.47
2023-04-19T16:53:16.024Z,13.46
2023-04-19T16:56:19.434Z,13.38
2023-04-19T16:59:22.249Z,13.11
2023-04-19T17:02:26.554Z,12.98
2023-04-19T17:05:29.552Z,12.83
2023-04-19T17:08:32.228Z,12.70
2023-04-19T17:11:34.938Z,12.62
2023-04-19T17:14:37.715Z,12.52
2023-04-19T17:17:42.769Z,12.44
2023-04-19T17:20:45.696Z,12.39
2023-04-19T17:23:48.391Z,12.36
2023-04-19T17:26:51.174Z,12.29
2023-04-19T17:29:54.308Z,12.24
2023-04-19T17:32:58.596Z,12.21
2023-04-19T17:36:01.346Z,12.16
2023-04-19T17:39:05.549Z,12.11
2023-04-19T17:42:08.393Z,12.08
2023-04-19T17:45:12.029Z,11.97
2023-04-19T17:48:16.167Z,11.99
2023-04-19T17:51:19.006Z,11.88
2023-04-19T17:54:21.679Z,11.84
2023-04-19T17:57:24.627Z,11.80
2023-04-19T18:00:27.421Z,11.73
2023-04-19T18:03:32.528Z,11.65
2023-04-19T18:06:35.480Z,11.53
2023-04-19T18:09:38.154Z,11.50
2023-04-19T18:12:41.059Z,11.39
2023-04-19T18:15:43.883Z,11.35
2023-04-19T18:18:48.073Z,11.37
2023-04-19T18:21:50.897Z,11.38
2023-04-19T18:24:53.786Z,11.43
2023-04-19T18:27:56.708Z,11.39
2023-04-19T18:30:59.417Z,11.37
2023-04-19T18:34:03.786Z,11.34
2023-04-19T18:37:16.174Z,11.28
2023-04-19T18:40:19.365Z,11.22
2023-04-19T18:43:22.205Z,11.15
2023-04-19T18:46:24.940Z,11.14
2023-04-19T18:49:29.036Z,11.07
2023-04-19T18:52:31.752Z,10.99
2023-04-19T18:55:34.655Z,10.91
2023-04-19T18:58:37.324Z,10.82
2023-04-19T19:01:40.167Z,10.80
2023-04-19T19:07:52.993Z,10.67
2023-04-19T19:14:01.768Z,10.59
2023-04-19T19:17:06.044Z,10.52
2023-04-19T19:20:11.315Z,10.45
2023-04-19T19:23:14.591Z,10.31
2023-04-19T19:26:17.446Z,10.22
2023-04-19T19:32:24.945Z,10.16
2023-04-19T19:35:29.142Z,10.08
2023-04-19T19:38:31.772Z,10.04
2023-04-19T19:44:40.697Z,9.90
2023-04-19T19:47:45.762Z,9.75
2023-04-19T19:53:57.221Z,9.51
2023-04-19T19:57:56.581Z,9.40
2023-04-19T20:00:43.809Z,9.25
2023-04-19T20:03:46.364Z,9.09
2023-04-19T20:09:57.328Z,8.95
2023-04-19T20:13:01.430Z,8.82
2023-04-19T20:16:04.392Z,8.74
2023-04-19T20:19:09.831Z,8.68
2023-04-19T20:22:14.324Z,8.59
2023-04-19T20:25:17.518Z,8.60
2023-04-19T20:28:20.240Z,8.53
2023-04-19T20:31:24.009Z,8.53
2023-04-19T20:34:26.939Z,8.47
2023-04-19T20:37:31.015Z,8.45
2023-04-19T20:40:33.778Z,8.47
2023-04-19T20:43:36.477Z,8.41
2023-04-19T20:46:39.122Z,8.28
2023-04-19T20:49:42.071Z,8.16
2023-04-19T20:52:46.393Z,8.03
2023-04-19T20:55:49.225Z,7.85
2023-04-19T20:58:52.089Z,7.81
2023-04-19T21:01:54.828Z,7.63
2023-04-19T21:04:57.558Z,7.55
2023-04-19T21:08:01.778Z,7.41
2023-04-19T21:11:04.677Z,7.24
2023-04-19T21:14:07.412Z,7.16
2023-04-19T21:17:10.450Z,7.12
2023-04-19T21:20:14.601Z,7.06
2023-04-19T21:23:18.861Z,7.06
2023-04-19T21:26:22.191Z,6.99
2023-04-19T21:29:25.091Z,6.94
2023-04-19T21:32:28.703Z,6.86
2023-04-19T21:35:31.416Z,6.93
2023-04-19T21:38:36.192Z,6.80
2023-04-19T21:41:39.030Z,6.82
2023-04-19T21:44:41.885Z,6.72
2023-04-19T21:47:44.583Z,6.72
2023-04-19T21:50:47.261Z,6.68
2023-04-19T21:53:51.385Z,6.64
2023-04-19T21:56:54.085Z,6.58
2023-04-19T21:59:56.767Z,6.57
2023-04-19T22:02:59.567Z,6.54
2023-04-19T22:06:02.765Z,6.45
2023-04-19T22:09:06.901Z,6.49
2023-04-19T22:12:11.831Z,6.43
2023-04-19T22:15:14.975Z,6.41
2023-04-19T22:18:17.660Z,6.44
2023-04-19T22:21:21.032Z,6.48
2023-04-19T22:24:25.176Z,6.40
2023-04-19T22:27:27.818Z,6.35
2023-04-19T22:30:30.963Z,6.35
2023-04-19T22:33:33.746Z,6.34
2023-04-19T22:36:36.561Z,6.25
2023-04-19T22:39:40.728Z,6.26
2023-04-19T22:42:43.589Z,6.23
2023-04-19T22:45:48.015Z,6.15
2023-04-19T22:48:50.983Z,6.23
2023-04-19T22:51:54.426Z,6.18
2023-04-19T22:54:58.577Z,6.10
2023-04-19T22:58:01.293Z,6.00
2023-04-19T23:01:04.277Z,5.97
2023-04-19T23:04:07.156Z,5.97
2023-04-19T23:07:10.003Z,5.96
2023-04-19T23:10:14.841Z,5.90
2023-04-19T23:13:17.791Z,5.86
2023-04-19T23:16:20.812Z,5.73
2023-04-19T23:19:23.623Z,5.69
2023-04-19T23:22:26.492Z,5.82
2023-04-19T23:25:30.600Z,5.74
2023-04-19T23:28:33.434Z,5.68
2023-04-19T23:31:36.306Z,5.66
2023-04-19T23:34:39.100Z,5.65
2023-04-19T23:37:42.033Z,5.52
2023-04-19T23:40:46.497Z,5.59
2023-04-19T23:43:49.380Z,5.54
2023-04-19T23:46:52.137Z,5.54
2023-04-19T23:49:55.157Z,5.51
2023-04-19T23:52:57.929Z,5.44
2023-04-19T23:56:02.004Z,5.34
2023-04-19T23:59:04.893Z,5.32
